sensor_id;sensor_type;location;lat;lon;timestamp;P1;durP1;ratioP1;P2;durP2;ratioP2
5819;SDS011;2936;47.348;9.640;2022-10-31T00:00:34;34.90;;;22.90;;
5819;SDS011;2936;47.348;9.640;2022-10-31T00:03:01;30.63;;;22.38;;
5819;SDS011;2936;47.348;9.640;2022-10-31T00:05:29;31.55;;;22.00;;
5819;SDS011;2936;47.348;9.640;2022-10-31T00:07:57;34.72;;;22.10;;
5819;SDS011;2936;47.348;9.640;2022-10-31T00:10:25;35.33;;;21.77;;
5819;SDS011;2936;47.348;9.640;2022-10-31T00:12:53;36.30;;;21.48;;
5819;SDS011;2936;47.348;9.640;2022-10-31T00:15:22;26.90;;;19.13;;
5819;SDS011;2936;47.348;9.640;2022-10-31T00:17:49;44.55;;;21.10;;
5819;SDS011;2936;47.348;9.640;2022-10-31T00:20:16;30.17;;;19.83;;
5819;SDS011;2936;47.348;9.640;2022-10-31T00:22:43;29.90;;;20.17;;
5819;SDS011;2936;47.348;9.640;2022-10-31T00:25:11;29.80;;;20.15;;
5819;SDS011;2936;47.348;9.640;2022-10-31T00:27:38;28.85;;;21.00;;
5819;SDS011;2936;47.348;9.640;2022-10-31T00:30:06;29.85;;;21.52;;
5819;SDS011;2936;47.348;9.640;2022-10-31T00:32:35;28.35;;;19.92;;
5819;SDS011;2936;47.348;9.640;2022-10-31T00:35:02;29.55;;;19.73;;
5819;SDS011;2936;47.348;9.640;2022-10-31T00:37:29;30.48;;;21.30;;
5819;SDS011;2936;47.348;9.640;2022-10-31T00:39:57;30.88;;;21.38;;
5819;SDS011;2936;47.348;9.640;2022-10-31T00:42:24;43.50;;;22.13;;
5819;SDS011;2936;47.348;9.640;2022-10-31T00:44:51;29.40;;;21.52;;
5819;SDS011;2936;47.348;9.640;2022-10-31T00:47:19;28.48;;;20.08;;
5819;SDS011;2936;47.348;9.640;2022-10-31T00:49:48;32.40;;;20.88;;
5819;SDS011;2936;47.348;9.640;2022-10-31T00:52:15;31.40;;;20.20;;
5819;SDS011;2936;47.348;9.640;2022-10-31T00:54:43;28.40;;;18.63;;
5819;SDS011;2936;47.348;9.640;2022-10-31T00:57:10;32.10;;;20.17;;
5819;SDS011;2936;47.348;9.640;2022-10-31T00:59:38;32.13;;;20.00;;
5819;SDS011;2936;47.348;9.640;2022-10-31T01:02:05;26.08;;;19.02;;
5819;SDS011;2936;47.348;9.640;2022-10-31T01:04:32;27.38;;;19.17;;
5819;SDS011;2936;47.348;9.640;2022-10-31T01:07:01;31.08;;;18.83;;
5819;SDS011;2936;47.348;9.640;2022-10-31T01:09:28;29.50;;;17.92;;
5819;SDS011;2936;47.348;9.640;2022-10-31T01:11:56;27.02;;;17.60;;
5819;SDS011;2936;47.348;9.640;2022-10-31T01:14:23;34.85;;;17.98;;
5819;SDS011;2936;47.348;9.640;2022-10-31T01:16:50;28.77;;;18.15;;
5819;SDS011;2936;47.348;9.640;2022-10-31T01:19:18;25.80;;;18.30;;
5819;SDS011;2936;47.348;9.640;2022-10-31T01:21:46;29.02;;;16.60;;
5819;SDS011;2936;47.348;9.640;2022-10-31T01:24:15;23.63;;;17.33;;
5819;SDS011;2936;47.348;9.640;2022-10-31T01:26:42;21.20;;;15.77;;
5819;SDS011;2936;47.348;9.640;2022-10-31T01:29:09;29.98;;;18.33;;
5819;SDS011;2936;47.348;9.640;2022-10-31T01:31:37;30.83;;;16.92;;
5819;SDS011;2936;47.348;9.640;2022-10-31T01:34:05;22.88;;;17.15;;
5819;SDS011;2936;47.348;9.640;2022-10-31T01:36:34;21.40;;;16.65;;
5819;SDS011;2936;47.348;9.640;2022-10-31T01:39:03;26.17;;;18.02;;
5819;SDS011;2936;47.348;9.640;2022-10-31T01:41:34;23.33;;;17.50;;
5819;SDS011;2936;47.348;9.640;2022-10-31T01:44:02;26.20;;;17.67;;
5819;SDS011;2936;47.348;9.640;2022-10-31T01:46:31;27.30;;;17.52;;
5819;SDS011;2936;47.348;9.640;2022-10-31T01:49:00;27.30;;;16.42;;
5819;SDS011;2936;47.348;9.640;2022-10-31T01:51:29;24.08;;;15.77;;
5819;SDS011;2936;47.348;9.640;2022-10-31T01:54:00;34.55;;;16.92;;
5819;SDS011;2936;47.348;9.640;2022-10-31T01:56:29;21.10;;;15.73;;
5819;SDS011;2936;47.348;9.640;2022-10-31T01:58:57;20.42;;;15.60;;
5819;SDS011;2936;47.348;9.640;2022-10-31T02:01:27;28.75;;;17.30;;
5819;SDS011;2936;47.348;9.640;2022-10-31T02:03:55;20.80;;;15.40;;
5819;SDS011;2936;47.348;9.640;2022-10-31T02:06:26;24.25;;;16.33;;
5819;SDS011;2936;47.348;9.640;2022-10-31T02:08:55;27.08;;;16.55;;
5819;SDS011;2936;47.348;9.640;2022-10-31T02:11:24;26.65;;;16.65;;
5819;SDS011;2936;47.348;9.640;2022-10-31T02:13:52;22.38;;;17.38;;
5819;SDS011;2936;47.348;9.640;2022-10-31T02:16:20;25.10;;;17.40;;
5819;SDS011;2936;47.348;9.640;2022-10-31T02:18:48;26.40;;;16.40;;
5819;SDS011;2936;47.348;9.640;2022-10-31T02:21:17;21.42;;;17.02;;
5819;SDS011;2936;47.348;9.640;2022-10-31T02:26:46;31.58;;;16.33;;
5819;SDS011;2936;47.348;9.640;2022-10-31T02:29:31;27.23;;;17.27;;
5819;SDS011;2936;47.348;9.640;2022-10-31T02:32:07;26.30;;;15.90;;
5819;SDS011;2936;47.348;9.640;2022-10-31T02:34:37;27.75;;;17.77;;
5819;SDS011;2936;47.348;9.640;2022-10-31T02:37:07;22.60;;;17.17;;
5819;SDS011;2936;47.348;9.640;2022-10-31T02:39:37;26.70;;;17.42;;
5819;SDS011;2936;47.348;9.640;2022-10-31T02:42:07;30.85;;;18.33;;
5819;SDS011;2936;47.348;9.640;2022-10-31T02:44:37;23.88;;;17.40;;
5819;SDS011;2936;47.348;9.640;2022-10-31T02:47:08;30.00;;;18.35;;
5819;SDS011;2936;47.348;9.640;2022-10-31T02:49:38;26.15;;;17.05;;
5819;SDS011;2936;47.348;9.640;2022-10-31T02:52:14;27.00;;;15.68;;
5819;SDS011;2936;47.348;9.640;2022-10-31T02:54:41;26.13;;;18.55;;
5819;SDS011;2936;47.348;9.640;2022-10-31T02:57:09;22.17;;;17.10;;
5819;SDS011;2936;47.348;9.640;2022-10-31T02:59:37;28.40;;;18.60;;
5819;SDS011;2936;47.348;9.640;2022-10-31T03:02:10;25.05;;;17.42;;
5819;SDS011;2936;47.348;9.640;2022-10-31T03:04:49;22.80;;;18.60;;
5819;SDS011;2936;47.348;9.640;2022-10-31T03:07:24;29.70;;;18.40;;
5819;SDS011;2936;47.348;9.640;2022-10-31T03:09:55;28.63;;;17.95;;
5819;SDS011;2936;47.348;9.640;2022-10-31T03:12:28;21.17;;;17.35;;
5819;SDS011;2936;47.348;9.640;2022-10-31T03:15:00;24.13;;;16.73;;
5819;SDS011;2936;47.348;9.640;2022-10-31T03:17:33;21.65;;;16.10;;
5819;SDS011;2936;47.348;9.640;2022-10-31T03:20:00;23.20;;;18.17;;
5819;SDS011;2936;47.348;9.640;2022-10-31T03:22:29;25.38;;;17.05;;
5819;SDS011;2936;47.348;9.640;2022-10-31T03:24:59;23.20;;;16.08;;
5819;SDS011;2936;47.348;9.640;2022-10-31T03:27:29;21.65;;;15.25;;
5819;SDS011;2936;47.348;9.640;2022-10-31T03:29:58;20.52;;;14.30;;
5819;SDS011;2936;47.348;9.640;2022-10-31T03:32:27;19.00;;;13.55;;
5819;SDS011;2936;47.348;9.640;2022-10-31T03:34:58;19.20;;;14.05;;
5819;SDS011;2936;47.348;9.640;2022-10-31T03:37:27;22.20;;;15.18;;
5819;SDS011;2936;47.348;9.640;2022-10-31T03:39:56;14.80;;;13.07;;
5819;SDS011;2936;47.348;9.640;2022-10-31T03:42:24;17.30;;;14.80;;
5819;SDS011;2936;47.348;9.640;2022-10-31T03:44:53;19.30;;;15.13;;
5819;SDS011;2936;47.348;9.640;2022-10-31T03:47:23;19.00;;;15.48;;
5819;SDS011;2936;47.348;9.640;2022-10-31T03:49:51;20.25;;;15.68;;
5819;SDS011;2936;47.348;9.640;2022-10-31T03:52:22;21.60;;;15.18;;
5819;SDS011;2936;47.348;9.640;2022-10-31T03:54:52;27.88;;;15.77;;
5819;SDS011;2936;47.348;9.640;2022-10-31T03:57:22;24.38;;;16.27;;
5819;SDS011;2936;47.348;9.640;2022-10-31T03:59:51;31.15;;;16.33;;
5819;SDS011;2936;47.348;9.640;2022-10-31T04:02:22;33.95;;;21.42;;
5819;SDS011;2936;47.348;9.640;2022-10-31T04:04:52;36.20;;;18.95;;
5819;SDS011;2936;47.348;9.640;2022-10-31T04:07:21;77.30;;;21.23;;
5819;SDS011;2936;47.348;9.640;2022-10-31T04:09:51;50.83;;;21.70;;
5819;SDS011;2936;47.348;9.640;2022-10-31T04:12:19;94.85;;;24.77;;
5819;SDS011;2936;47.348;9.640;2022-10-31T04:14:47;39.30;;;21.75;;
5819;SDS011;2936;47.348;9.640;2022-10-31T04:17:16;67.40;;;22.75;;
5819;SDS011;2936;47.348;9.640;2022-10-31T04:19:44;36.92;;;20.60;;
5819;SDS011;2936;47.348;9.640;2022-10-31T04:22:11;104.93;;;22.55;;
5819;SDS011;2936;47.348;9.640;2022-10-31T04:24:40;36.58;;;20.55;;
5819;SDS011;2936;47.348;9.640;2022-10-31T04:27:08;71.85;;;20.85;;
5819;SDS011;2936;47.348;9.640;2022-10-31T04:29:35;82.70;;;22.98;;
5819;SDS011;2936;47.348;9.640;2022-10-31T04:32:02;40.83;;;23.05;;
5819;SDS011;2936;47.348;9.640;2022-10-31T04:34:30;47.08;;;20.73;;
5819;SDS011;2936;47.348;9.640;2022-10-31T04:36:58;88.72;;;23.33;;
5819;SDS011;2936;47.348;9.640;2022-10-31T04:39:25;33.72;;;20.00;;
5819;SDS011;2936;47.348;9.640;2022-10-31T04:41:54;63.47;;;23.85;;
5819;SDS011;2936;47.348;9.640;2022-10-31T04:44:21;40.83;;;22.90;;
5819;SDS011;2936;47.348;9.640;2022-10-31T04:46:48;66.07;;;22.17;;
5819;SDS011;2936;47.348;9.640;2022-10-31T04:49:16;29.98;;;19.85;;
5819;SDS011;2936;47.348;9.640;2022-10-31T04:51:43;34.28;;;20.15;;
5819;SDS011;2936;47.348;9.640;2022-10-31T04:54:11;26.50;;;19.92;;
5819;SDS011;2936;47.348;9.640;2022-10-31T04:56:38;26.27;;;17.88;;
5819;SDS011;2936;47.348;9.640;2022-10-31T04:59:07;28.85;;;18.60;;
5819;SDS011;2936;47.348;9.640;2022-10-31T05:01:34;31.88;;;20.75;;
5819;SDS011;2936;47.348;9.640;2022-10-31T05:04:02;32.05;;;21.40;;
5819;SDS011;2936;47.348;9.640;2022-10-31T05:06:29;25.20;;;19.00;;
5819;SDS011;2936;47.348;9.640;2022-10-31T05:08:56;26.30;;;17.73;;
5819;SDS011;2936;47.348;9.640;2022-10-31T05:11:24;34.95;;;18.38;;
5819;SDS011;2936;47.348;9.640;2022-10-31T05:13:51;32.88;;;19.80;;
5819;SDS011;2936;47.348;9.640;2022-10-31T05:16:20;28.00;;;18.45;;
5819;SDS011;2936;47.348;9.640;2022-10-31T05:18:47;42.00;;;20.20;;
5819;SDS011;2936;47.348;9.640;2022-10-31T05:21:14;40.53;;;20.08;;
5819;SDS011;2936;47.348;9.640;2022-10-31T05:23:42;54.70;;;20.65;;
5819;SDS011;2936;47.348;9.640;2022-10-31T05:26:09;28.70;;;20.45;;
5819;SDS011;2936;47.348;9.640;2022-10-31T05:28:36;25.27;;;18.80;;
5819;SDS011;2936;47.348;9.640;2022-10-31T05:31:04;41.80;;;20.70;;
5819;SDS011;2936;47.348;9.640;2022-10-31T05:33:32;27.65;;;18.77;;
5819;SDS011;2936;47.348;9.640;2022-10-31T05:36:00;37.17;;;18.67;;
5819;SDS011;2936;47.348;9.640;2022-10-31T05:38:27;35.10;;;19.08;;
5819;SDS011;2936;47.348;9.640;2022-10-31T05:40:54;29.98;;;16.83;;
5819;SDS011;2936;47.348;9.640;2022-10-31T05:43:25;41.00;;;17.55;;
5819;SDS011;2936;47.348;9.640;2022-10-31T05:45:52;34.35;;;17.15;;
5819;SDS011;2936;47.348;9.640;2022-10-31T05:48:20;36.58;;;17.63;;
5819;SDS011;2936;47.348;9.640;2022-10-31T05:50:49;38.42;;;16.58;;
5819;SDS011;2936;47.348;9.640;2022-10-31T05:53:17;26.55;;;16.95;;
5819;SDS011;2936;47.348;9.640;2022-10-31T05:55:44;32.97;;;18.73;;
5819;SDS011;2936;47.348;9.640;2022-10-31T05:58:12;24.33;;;18.05;;
5819;SDS011;2936;47.348;9.640;2022-10-31T06:00:39;26.33;;;18.55;;
5819;SDS011;2936;47.348;9.640;2022-10-31T06:03:07;23.33;;;17.58;;
5819;SDS011;2936;47.348;9.640;2022-10-31T06:05:35;30.08;;;19.55;;
5819;SDS011;2936;47.348;9.640;2022-10-31T06:08:04;21.75;;;17.20;;
5819;SDS011;2936;47.348;9.640;2022-10-31T06:10:31;25.92;;;18.38;;
5819;SDS011;2936;47.348;9.640;2022-10-31T06:12:58;32.95;;;19.55;;
5819;SDS011;2936;47.348;9.640;2022-10-31T06:15:26;22.38;;;17.40;;
5819;SDS011;2936;47.348;9.640;2022-10-31T06:18:02;30.50;;;19.38;;
5819;SDS011;2936;47.348;9.640;2022-10-31T06:20:30;38.80;;;20.48;;
5819;SDS011;2936;47.348;9.640;2022-10-31T06:22:57;44.67;;;21.27;;
5819;SDS011;2936;47.348;9.640;2022-10-31T06:25:26;22.83;;;17.13;;
5819;SDS011;2936;47.348;9.640;2022-10-31T06:27:54;53.30;;;19.08;;
5819;SDS011;2936;47.348;9.640;2022-10-31T06:30:21;31.08;;;17.90;;
5819;SDS011;2936;47.348;9.640;2022-10-31T06:32:48;22.10;;;19.08;;
5819;SDS011;2936;47.348;9.640;2022-10-31T06:35:19;27.77;;;19.85;;
5819;SDS011;2936;47.348;9.640;2022-10-31T06:37:50;24.35;;;18.50;;
5819;SDS011;2936;47.348;9.640;2022-10-31T06:40:18;24.50;;;19.05;;
5819;SDS011;2936;47.348;9.640;2022-10-31T06:42:47;51.40;;;20.95;;
5819;SDS011;2936;47.348;9.640;2022-10-31T06:45:14;68.72;;;19.40;;
5819;SDS011;2936;47.348;9.640;2022-10-31T06:47:42;31.55;;;19.45;;
5819;SDS011;2936;47.348;9.640;2022-10-31T06:50:17;52.05;;;20.52;;
5819;SDS011;2936;47.348;9.640;2022-10-31T06:52:49;35.05;;;18.63;;
5819;SDS011;2936;47.348;9.640;2022-10-31T06:55:16;44.03;;;19.38;;
5819;SDS011;2936;47.348;9.640;2022-10-31T06:57:50;25.45;;;18.38;;
5819;SDS011;2936;47.348;9.640;2022-10-31T07:00:18;21.83;;;16.50;;
5819;SDS011;2936;47.348;9.640;2022-10-31T07:02:52;27.48;;;18.45;;
5819;SDS011;2936;47.348;9.640;2022-10-31T07:05:20;40.17;;;18.90;;
5819;SDS011;2936;47.348;9.640;2022-10-31T07:07:51;28.00;;;18.75;;
5819;SDS011;2936;47.348;9.640;2022-10-31T07:10:18;23.35;;;18.75;;
5819;SDS011;2936;47.348;9.640;2022-10-31T07:12:46;23.35;;;18.60;;
5819;SDS011;2936;47.348;9.640;2022-10-31T07:15:14;26.48;;;19.83;;
5819;SDS011;2936;47.348;9.640;2022-10-31T07:17:42;34.08;;;18.88;;
5819;SDS011;2936;47.348;9.640;2022-10-31T07:20:09;25.60;;;19.50;;
5819;SDS011;2936;47.348;9.640;2022-10-31T07:22:37;30.60;;;20.15;;
5819;SDS011;2936;47.348;9.640;2022-10-31T07:25:04;32.72;;;22.90;;
5819;SDS011;2936;47.348;9.640;2022-10-31T07:27:35;30.70;;;22.25;;
5819;SDS011;2936;47.348;9.640;2022-10-31T07:30:03;35.80;;;23.67;;
5819;SDS011;2936;47.348;9.640;2022-10-31T07:32:38;103.82;;;24.42;;
5819;SDS011;2936;47.348;9.640;2022-10-31T07:35:06;57.67;;;20.65;;
5819;SDS011;2936;47.348;9.640;2022-10-31T07:37:34;56.65;;;20.33;;
5819;SDS011;2936;47.348;9.640;2022-10-31T07:40:01;72.00;;;20.88;;
5819;SDS011;2936;47.348;9.640;2022-10-31T07:42:28;51.90;;;22.10;;
5819;SDS011;2936;47.348;9.640;2022-10-31T07:44:56;55.30;;;20.60;;
5819;SDS011;2936;47.348;9.640;2022-10-31T07:47:23;65.80;;;19.63;;
5819;SDS011;2936;47.348;9.640;2022-10-31T07:49:53;27.05;;;17.02;;
5819;SDS011;2936;47.348;9.640;2022-10-31T07:52:20;58.97;;;18.90;;
5819;SDS011;2936;47.348;9.640;2022-10-31T07:54:47;23.42;;;18.58;;
5819;SDS011;2936;47.348;9.640;2022-10-31T07:57:14;41.20;;;21.23;;
5819;SDS011;2936;47.348;9.640;2022-10-31T07:59:42;34.25;;;22.73;;
5819;SDS011;2936;47.348;9.640;2022-10-31T08:02:09;43.88;;;23.25;;
5819;SDS011;2936;47.348;9.640;2022-10-31T08:04:37;39.28;;;21.40;;
5819;SDS011;2936;47.348;9.640;2022-10-31T08:07:05;34.70;;;19.95;;
5819;SDS011;2936;47.348;9.640;2022-10-31T08:09:33;38.17;;;20.88;;
5819;SDS011;2936;47.348;9.640;2022-10-31T08:12:00;78.45;;;19.30;;
5819;SDS011;2936;47.348;9.640;2022-10-31T08:14:27;26.42;;;17.00;;
5819;SDS011;2936;47.348;9.640;2022-10-31T08:16:54;55.30;;;18.08;;
5819;SDS011;2936;47.348;9.640;2022-10-31T08:19:22;95.65;;;20.67;;
5819;SDS011;2936;47.348;9.640;2022-10-31T08:21:50;65.13;;;20.80;;
5819;SDS011;2936;47.348;9.640;2022-10-31T08:24:19;89.78;;;20.77;;
5819;SDS011;2936;47.348;9.640;2022-10-31T08:26:46;72.43;;;23.52;;
5819;SDS011;2936;47.348;9.640;2022-10-31T08:29:14;26.88;;;20.98;;
5819;SDS011;2936;47.348;9.640;2022-10-31T08:31:41;81.57;;;22.67;;
5819;SDS011;2936;47.348;9.640;2022-10-31T08:34:09;119.78;;;25.73;;
5819;SDS011;2936;47.348;9.640;2022-10-31T08:36:36;68.95;;;25.70;;
5819;SDS011;2936;47.348;9.640;2022-10-31T08:39:03;32.40;;;21.38;;
5819;SDS011;2936;47.348;9.640;2022-10-31T08:41:32;78.28;;;21.90;;
5819;SDS011;2936;47.348;9.640;2022-10-31T08:44:00;109.70;;;24.50;;
5819;SDS011;2936;47.348;9.640;2022-10-31T08:46:27;109.30;;;25.33;;
5819;SDS011;2936;47.348;9.640;2022-10-31T08:48:55;36.85;;;23.20;;
5819;SDS011;2936;47.348;9.640;2022-10-31T08:51:22;90.90;;;26.33;;
5819;SDS011;2936;47.348;9.640;2022-10-31T08:53:49;88.78;;;25.10;;
5819;SDS011;2936;47.348;9.640;2022-10-31T08:56:17;115.03;;;27.05;;
5819;SDS011;2936;47.348;9.640;2022-10-31T08:58:45;92.28;;;26.85;;
5819;SDS011;2936;47.348;9.640;2022-10-31T09:01:13;81.20;;;27.52;;
5819;SDS011;2936;47.348;9.640;2022-10-31T09:03:40;56.53;;;23.00;;
5819;SDS011;2936;47.348;9.640;2022-10-31T09:06:07;141.43;;;26.67;;
5819;SDS011;2936;47.348;9.640;2022-10-31T09:08:35;52.22;;;22.13;;
5819;SDS011;2936;47.348;9.640;2022-10-31T09:11:03;33.28;;;21.73;;
5819;SDS011;2936;47.348;9.640;2022-10-31T09:13:31;105.03;;;24.60;;
5819;SDS011;2936;47.348;9.640;2022-10-31T09:16:00;94.68;;;21.90;;
5819;SDS011;2936;47.348;9.640;2022-10-31T09:18:28;36.90;;;20.88;;
5819;SDS011;2936;47.348;9.640;2022-10-31T09:20:57;54.08;;;21.95;;
5819;SDS011;2936;47.348;9.640;2022-10-31T09:23:25;77.97;;;22.90;;
5819;SDS011;2936;47.348;9.640;2022-10-31T09:25:52;40.40;;;23.30;;
5819;SDS011;2936;47.348;9.640;2022-10-31T09:28:21;38.22;;;23.58;;
5819;SDS011;2936;47.348;9.640;2022-10-31T09:30:49;34.35;;;19.75;;
5819;SDS011;2936;47.348;9.640;2022-10-31T09:33:18;25.42;;;19.73;;
5819;SDS011;2936;47.348;9.640;2022-10-31T09:35:46;27.15;;;20.58;;
5819;SDS011;2936;47.348;9.640;2022-10-31T09:38:14;26.35;;;20.05;;
5819;SDS011;2936;47.348;9.640;2022-10-31T09:40:43;30.13;;;20.00;;
5819;SDS011;2936;47.348;9.640;2022-10-31T09:43:15;29.85;;;19.88;;
5819;SDS011;2936;47.348;9.640;2022-10-31T09:45:47;28.80;;;19.30;;
5819;SDS011;2936;47.348;9.640;2022-10-31T09:48:24;28.40;;;18.48;;
5819;SDS011;2936;47.348;9.640;2022-10-31T09:50:55;22.27;;;18.27;;
5819;SDS011;2936;47.348;9.640;2022-10-31T09:53:26;20.80;;;18.60;;
5819;SDS011;2936;47.348;9.640;2022-10-31T09:55:57;26.85;;;17.67;;
5819;SDS011;2936;47.348;9.640;2022-10-31T09:58:26;30.30;;;16.70;;
5819;SDS011;2936;47.348;9.640;2022-10-31T10:00:54;19.40;;;17.30;;
5819;SDS011;2936;47.348;9.640;2022-10-31T10:03:28;31.35;;;19.25;;
5819;SDS011;2936;47.348;9.640;2022-10-31T10:05:58;26.98;;;17.98;;
5819;SDS011;2936;47.348;9.640;2022-10-31T10:08:27;25.17;;;18.80;;
5819;SDS011;2936;47.348;9.640;2022-10-31T10:10:58;23.35;;;17.88;;
5819;SDS011;2936;47.348;9.640;2022-10-31T10:13:34;30.15;;;19.00;;
5819;SDS011;2936;47.348;9.640;2022-10-31T10:16:14;29.85;;;19.17;;
5819;SDS011;2936;47.348;9.640;2022-10-31T10:18:47;24.85;;;18.80;;
5819;SDS011;2936;47.348;9.640;2022-10-31T10:21:21;22.35;;;17.15;;
5819;SDS011;2936;47.348;9.640;2022-10-31T10:23:52;24.98;;;18.50;;
5819;SDS011;2936;47.348;9.640;2022-10-31T10:26:21;28.30;;;18.73;;
5819;SDS011;2936;47.348;9.640;2022-10-31T10:28:50;28.58;;;19.48;;
5819;SDS011;2936;47.348;9.640;2022-10-31T10:31:21;20.90;;;17.48;;
5819;SDS011;2936;47.348;9.640;2022-10-31T10:33:54;28.85;;;18.58;;
5819;SDS011;2936;47.348;9.640;2022-10-31T10:36:25;24.83;;;17.73;;
5819;SDS011;2936;47.348;9.640;2022-10-31T10:38:54;27.25;;;17.20;;
5819;SDS011;2936;47.348;9.640;2022-10-31T10:41:22;26.77;;;19.30;;
5819;SDS011;2936;47.348;9.640;2022-10-31T10:43:50;21.55;;;18.05;;
5819;SDS011;2936;47.348;9.640;2022-10-31T10:46:18;29.00;;;19.05;;
5819;SDS011;2936;47.348;9.640;2022-10-31T10:51:48;23.95;;;18.30;;
5819;SDS011;2936;47.348;9.640;2022-10-31T10:54:22;32.45;;;19.55;;
5819;SDS011;2936;47.348;9.640;2022-10-31T10:56:55;28.20;;;20.13;;
5819;SDS011;2936;47.348;9.640;2022-10-31T10:59:27;29.30;;;17.55;;
5819;SDS011;2936;47.348;9.640;2022-10-31T11:01:55;30.65;;;19.10;;
5819;SDS011;2936;47.348;9.640;2022-10-31T11:04:25;28.73;;;18.52;;
5819;SDS011;2936;47.348;9.640;2022-10-31T11:06:58;25.92;;;17.70;;
5819;SDS011;2936;47.348;9.640;2022-10-31T11:09:25;26.98;;;18.52;;
5819;SDS011;2936;47.348;9.640;2022-10-31T11:11:53;32.17;;;17.98;;
5819;SDS011;2936;47.348;9.640;2022-10-31T11:14:21;33.10;;;18.95;;
5819;SDS011;2936;47.348;9.640;2022-10-31T11:16:50;28.65;;;19.90;;
5819;SDS011;2936;47.348;9.640;2022-10-31T11:19:19;36.45;;;19.95;;
5819;SDS011;2936;47.348;9.640;2022-10-31T11:21:47;26.60;;;18.27;;
5819;SDS011;2936;47.348;9.640;2022-10-31T11:24:17;31.25;;;18.30;;
5819;SDS011;2936;47.348;9.640;2022-10-31T11:26:47;22.33;;;16.92;;
5819;SDS011;2936;47.348;9.640;2022-10-31T11:29:15;27.27;;;19.65;;
5819;SDS011;2936;47.348;9.640;2022-10-31T11:31:44;29.23;;;19.50;;
5819;SDS011;2936;47.348;9.640;2022-10-31T11:34:14;35.33;;;19.88;;
5819;SDS011;2936;47.348;9.640;2022-10-31T11:36:42;26.15;;;18.42;;
5819;SDS011;2936;47.348;9.640;2022-10-31T11:39:17;31.60;;;19.52;;
5819;SDS011;2936;47.348;9.640;2022-10-31T11:41:45;31.33;;;18.33;;
5819;SDS011;2936;47.348;9.640;2022-10-31T11:44:14;30.77;;;18.70;;
5819;SDS011;2936;47.348;9.640;2022-10-31T11:46:43;27.70;;;19.27;;
5819;SDS011;2936;47.348;9.640;2022-10-31T11:49:13;32.90;;;19.10;;
5819;SDS011;2936;47.348;9.640;2022-10-31T11:51:42;27.42;;;19.45;;
5819;SDS011;2936;47.348;9.640;2022-10-31T11:54:18;35.70;;;19.08;;
5819;SDS011;2936;47.348;9.640;2022-10-31T11:56:46;32.88;;;22.95;;
5819;SDS011;2936;47.348;9.640;2022-10-31T11:59:18;26.98;;;18.92;;
5819;SDS011;2936;47.348;9.640;2022-10-31T12:01:47;29.38;;;20.88;;
5819;SDS011;2936;47.348;9.640;2022-10-31T12:04:14;29.35;;;20.83;;
5819;SDS011;2936;47.348;9.640;2022-10-31T12:06:42;34.53;;;21.77;;
5819;SDS011;2936;47.348;9.640;2022-10-31T12:09:15;31.77;;;19.95;;
5819;SDS011;2936;47.348;9.640;2022-10-31T12:11:49;30.52;;;20.45;;
5819;SDS011;2936;47.348;9.640;2022-10-31T12:14:23;35.00;;;21.13;;
5819;SDS011;2936;47.348;9.640;2022-10-31T12:16:54;37.45;;;19.85;;
5819;SDS011;2936;47.348;9.640;2022-10-31T12:19:26;30.75;;;18.67;;
5819;SDS011;2936;47.348;9.640;2022-10-31T12:22:05;36.33;;;21.60;;
5819;SDS011;2936;47.348;9.640;2022-10-31T12:24:43;27.52;;;20.00;;
5819;SDS011;2936;47.348;9.640;2022-10-31T12:27:17;28.38;;;19.50;;
5819;SDS011;2936;47.348;9.640;2022-10-31T12:30:00;29.80;;;19.63;;
5819;SDS011;2936;47.348;9.640;2022-10-31T12:32:32;33.67;;;21.05;;
5819;SDS011;2936;47.348;9.640;2022-10-31T12:35:06;33.35;;;19.40;;
5819;SDS011;2936;47.348;9.640;2022-10-31T12:37:41;33.50;;;19.02;;
5819;SDS011;2936;47.348;9.640;2022-10-31T12:40:22;35.08;;;21.15;;
5819;SDS011;2936;47.348;9.640;2022-10-31T12:42:57;25.42;;;18.85;;
5819;SDS011;2936;47.348;9.640;2022-10-31T12:45:36;33.00;;;20.23;;
5819;SDS011;2936;47.348;9.640;2022-10-31T12:50:54;27.52;;;19.23;;
5819;SDS011;2936;47.348;9.640;2022-10-31T12:53:30;28.38;;;20.35;;
5819;SDS011;2936;47.348;9.640;2022-10-31T12:56:09;24.80;;;19.77;;
5819;SDS011;2936;47.348;9.640;2022-10-31T12:58:40;31.20;;;20.42;;
5819;SDS011;2936;47.348;9.640;2022-10-31T13:01:10;30.50;;;20.20;;
5819;SDS011;2936;47.348;9.640;2022-10-31T13:03:42;32.15;;;21.33;;
5819;SDS011;2936;47.348;9.640;2022-10-31T13:06:13;28.23;;;20.33;;
5819;SDS011;2936;47.348;9.640;2022-10-31T13:08:43;25.58;;;19.73;;
5819;SDS011;2936;47.348;9.640;2022-10-31T13:11:12;27.33;;;20.65;;
5819;SDS011;2936;47.348;9.640;2022-10-31T13:13:43;29.63;;;19.85;;
5819;SDS011;2936;47.348;9.640;2022-10-31T13:16:13;28.77;;;20.40;;
5819;SDS011;2936;47.348;9.640;2022-10-31T13:18:43;29.77;;;18.52;;
5819;SDS011;2936;47.348;9.640;2022-10-31T13:21:12;30.30;;;18.77;;
5819;SDS011;2936;47.348;9.640;2022-10-31T13:23:42;26.37;;;19.73;;
5819;SDS011;2936;47.348;9.640;2022-10-31T13:26:11;25.43;;;19.50;;
5819;SDS011;2936;47.348;9.640;2022-10-31T13:28:40;23.50;;;18.15;;
5819;SDS011;2936;47.348;9.640;2022-10-31T13:31:11;28.08;;;19.50;;
5819;SDS011;2936;47.348;9.640;2022-10-31T13:33:39;29.73;;;19.60;;
5819;SDS011;2936;47.348;9.640;2022-10-31T13:36:14;30.97;;;20.70;;
5819;SDS011;2936;47.348;9.640;2022-10-31T13:38:44;38.67;;;20.83;;
5819;SDS011;2936;47.348;9.640;2022-10-31T13:41:20;32.47;;;19.70;;
5819;SDS011;2936;47.348;9.640;2022-10-31T13:43:54;30.13;;;19.00;;
5819;SDS011;2936;47.348;9.640;2022-10-31T13:46:34;29.90;;;20.00;;
5819;SDS011;2936;47.348;9.640;2022-10-31T13:49:02;29.57;;;20.10;;
5819;SDS011;2936;47.348;9.640;2022-10-31T13:51:30;33.40;;;20.00;;
5819;SDS011;2936;47.348;9.640;2022-10-31T13:53:59;29.23;;;21.73;;
5819;SDS011;2936;47.348;9.640;2022-10-31T13:56:27;31.60;;;19.50;;
5819;SDS011;2936;47.348;9.640;2022-10-31T13:59:03;31.30;;;18.73;;
5819;SDS011;2936;47.348;9.640;2022-10-31T14:01:33;25.90;;;19.17;;
5819;SDS011;2936;47.348;9.640;2022-10-31T14:04:02;27.03;;;18.90;;
5819;SDS011;2936;47.348;9.640;2022-10-31T14:06:44;25.77;;;19.70;;
5819;SDS011;2936;47.348;9.640;2022-10-31T14:09:17;28.40;;;19.37;;
5819;SDS011;2936;47.348;9.640;2022-10-31T14:11:46;29.60;;;20.20;;
5819;SDS011;2936;47.348;9.640;2022-10-31T14:14:13;28.37;;;19.53;;
5819;SDS011;2936;47.348;9.640;2022-10-31T14:16:44;25.83;;;18.10;;
5819;SDS011;2936;47.348;9.640;2022-10-31T14:19:14;34.70;;;19.00;;
5819;SDS011;2936;47.348;9.640;2022-10-31T14:21:43;22.87;;;17.87;;
5819;SDS011;2936;47.348;9.640;2022-10-31T14:24:14;29.63;;;18.83;;
5819;SDS011;2936;47.348;9.640;2022-10-31T14:26:50;28.83;;;17.53;;
5819;SDS011;2936;47.348;9.640;2022-10-31T14:29:22;31.07;;;17.73;;
5819;SDS011;2936;47.348;9.640;2022-10-31T14:31:55;27.05;;;18.00;;
5819;SDS011;2936;47.348;9.640;2022-10-31T14:34:26;32.93;;;19.43;;
5819;SDS011;2936;47.348;9.640;2022-10-31T14:37:15;25.30;;;18.57;;
5819;SDS011;2936;47.348;9.640;2022-10-31T14:39:58;24.33;;;17.70;;
5819;SDS011;2936;47.348;9.640;2022-10-31T14:42:48;26.13;;;19.53;;
5819;SDS011;2936;47.348;9.640;2022-10-31T14:45:27;29.10;;;20.53;;
5819;SDS011;2936;47.348;9.640;2022-10-31T14:48:03;32.95;;;20.17;;
5819;SDS011;2936;47.348;9.640;2022-10-31T14:50:39;26.77;;;19.03;;
5819;SDS011;2936;47.348;9.640;2022-10-31T14:53:10;28.63;;;19.20;;
5819;SDS011;2936;47.348;9.640;2022-10-31T14:55:40;33.60;;;21.47;;
5819;SDS011;2936;47.348;9.640;2022-10-31T14:58:13;26.73;;;18.58;;
5819;SDS011;2936;47.348;9.640;2022-10-31T15:00:42;31.07;;;21.43;;
5819;SDS011;2936;47.348;9.640;2022-10-31T15:03:12;23.90;;;19.47;;
5819;SDS011;2936;47.348;9.640;2022-10-31T15:05:41;37.73;;;21.50;;
5819;SDS011;2936;47.348;9.640;2022-10-31T15:08:12;38.53;;;19.97;;
5819;SDS011;2936;47.348;9.640;2022-10-31T15:10:44;34.60;;;19.87;;